الصفحة الرئيسية
METAR-TAF:

METAR-TAF

مطار :

فودجا, إيطاليا

دائرة عرض: 41-32N, خط طول: 015-43E, ارتفاع: 57 متر

مراقبة الطقس الحالي

تاريخ ووقت الإصدار 44 دقيقة قبل الساعة 17:55UTC
ريح 7 عقدة من الشرق/الشمال الشرقي
درجة الحرارة 10°درجة مئوية
الرطوبة 87%
ضغط 1020 hPa
الرؤية: 8000 متر

METAR: LIBA 041755Z 07007KT 8000 NSC 10/08 Q1020 RMK FEW FEW250 VIS MIN 8000 WIND THR11 08007KT WIND THR29 /////KT BLU

زمن: 19:39 (18:39 UTC)

توقعات

التوقعات صالحة من04 الساعة 18 UTC إلى 05 الساعة 03 UTC
ريح 8 عقدة من الشرق
الرؤية: 8000 متر
أصبح
من 04 الساعة 20 UTC إلى 04 الساعة 22 UTC
ريح 3 عقدةمن اتجاهات متغيرة
الرؤية: 6000 متر
مؤقت
من 05 الساعة 00 UTC إلى 05 الساعة 03 UTC
الرؤية: 4000 متر
غيوم قليلة على ارتفاع 1000 قدم
غشاء

TAF: LIBA 0418/0503 09008KT 8000 NSC BECMG 0420/0422 VRB03KT 6000 NSC TEMPO 0500/0503 4000 BR FEW010

أرصاد الطقس والتوقعات من أكثر من 4000 مطار (تقارير الطقس للمطار METAR والتنبؤ بالطقس بالمطارTAF).

المحطات المتاحة هي النقط الصفراء والحمراء على الخريطة.

حرك المؤشر فوق النقطة لمعرفة اسم المحطة.

ثم انقر لمعرفة أرصاد وتوقعات الطقس.

لتغيير الخارطة: اضغط على الأزرار الخضراء مع رمز الصليب الأسود للتكبير. على الزر الأخضر مع شرطة للتصغير، أو على الأسهم الخضراء للخرائط المجاورة.


METAR-TAF: